createdAt,value
2022-08-01T00:00:10.816Z,21.96
2022-08-01T00:01:10.820Z,21.96
2022-08-01T00:02:10.816Z,21.94
2022-08-01T00:03:10.806Z,21.86
2022-08-01T00:04:10.769Z,21.81
2022-08-01T00:05:10.774Z,21.82
2022-08-01T00:06:10.755Z,21.75
2022-08-01T00:07:10.730Z,21.73
2022-08-01T00:08:10.719Z,21.71
2022-08-01T00:09:10.695Z,21.68
2022-08-01T00:10:11.724Z,21.70
2022-08-01T00:11:10.686Z,21.71
2022-08-01T00:12:11.009Z,21.71
2022-08-01T00:13:10.665Z,21.70
2022-08-01T00:14:10.663Z,21.68
2022-08-01T00:15:10.629Z,21.70
2022-08-01T00:16:10.627Z,21.71
2022-08-01T00:17:10.605Z,21.73
2022-08-01T00:18:10.595Z,21.73
2022-08-01T00:19:10.568Z,21.73
2022-08-01T00:20:10.576Z,21.74
2022-08-01T00:21:10.567Z,21.75
2022-08-01T00:22:10.522Z,21.75
2022-08-01T00:23:10.541Z,21.75
2022-08-01T00:24:15.425Z,21.75
2022-08-01T00:25:11.505Z,21.77
2022-08-01T00:26:10.501Z,21.74
2022-08-01T00:27:10.490Z,21.74
2022-08-01T00:28:10.469Z,21.71
2022-08-01T00:30:01.135Z,21.71
2022-08-01T00:30:14.629Z,21.71
2022-08-01T00:31:10.446Z,21.73
2022-08-01T00:32:10.402Z,21.74
2022-08-01T00:33:10.433Z,21.71
2022-08-01T00:34:10.393Z,21.71
2022-08-01T00:35:10.396Z,21.68
2022-08-01T00:36:10.387Z,21.68
2022-08-01T00:37:10.356Z,21.66
2022-08-01T00:38:11.341Z,21.61
2022-08-01T00:39:10.311Z,21.59
2022-08-01T00:40:10.302Z,21.56
2022-08-01T00:41:10.322Z,21.53
2022-08-01T00:42:10.291Z,21.53
2022-08-01T00:43:10.293Z,21.51
2022-08-01T00:44:10.275Z,21.49
2022-08-01T00:45:10.262Z,21.49
2022-08-01T00:46:10.263Z,21.49
2022-08-01T00:47:10.217Z,21.46
2022-08-01T00:48:10.209Z,21.40
2022-08-01T00:49:10.547Z,21.38
2022-08-01T00:50:10.173Z,21.38
2022-08-01T00:51:10.160Z,21.36
2022-08-01T00:52:10.149Z,21.31
2022-08-01T00:53:10.162Z,21.27
2022-08-01T00:54:11.121Z,21.27
2022-08-01T00:55:10.119Z,21.26
2022-08-01T00:56:10.114Z,21.26
2022-08-01T00:57:10.878Z,21.24
2022-08-01T00:58:10.095Z,21.26
2022-08-01T00:59:10.072Z,21.22
2022-08-01T01:00:10.065Z,21.22
2022-08-01T01:01:10.079Z,21.22
2022-08-01T01:02:15.398Z,21.22
2022-08-01T01:03:11.020Z,21.22
2022-08-01T01:04:09.990Z,21.22
2022-08-01T01:05:09.993Z,21.21
2022-08-01T01:06:09.979Z,21.19
2022-08-01T01:07:09.972Z,21.19
2022-08-01T01:08:09.983Z,21.21
2022-08-01T01:09:09.927Z,21.21
2022-08-01T01:10:09.929Z,21.19
2022-08-01T01:11:09.913Z,21.19
2022-08-01T01:12:09.905Z,21.18
2022-08-01T01:13:09.910Z,21.18
2022-08-01T01:14:09.892Z,21.19
2022-08-01T01:15:09.851Z,21.18
2022-08-01T01:16:09.852Z,21.16
2022-08-01T01:17:09.857Z,21.16
2022-08-01T01:18:09.811Z,21.15
2022-08-01T01:19:09.832Z,21.15
2022-08-01T01:20:09.813Z,21.15
2022-08-01T01:21:09.793Z,21.13
2022-08-01T01:22:09.761Z,21.16
2022-08-01T01:23:09.763Z,21.21
2022-08-01T01:24:09.771Z,21.22
2022-08-01T01:25:09.747Z,21.26
2022-08-01T01:26:09.717Z,21.28
2022-08-01T01:27:09.698Z,21.26
2022-08-01T01:28:09.682Z,21.27
2022-08-01T01:29:09.680Z,21.28
2022-08-01T01:30:09.683Z,21.30
2022-08-01T01:31:10.993Z,21.27
2022-08-01T01:32:09.650Z,21.27
2022-08-01T01:33:09.631Z,21.26
2022-08-01T01:34:09.629Z,21.27
2022-08-01T01:35:09.606Z,21.26
2022-08-01T01:36:11.713Z,21.21
2022-08-01T01:37:09.575Z,21.26
2022-08-01T01:38:09.563Z,21.26
2022-08-01T01:39:09.558Z,21.26
2022-08-01T01:40:09.545Z,21.22
2022-08-01T01:41:09.530Z,21.19
2022-08-01T01:42:09.513Z,21.18
2022-08-01T01:43:09.502Z,21.15
2022-08-01T01:44:09.498Z,21.15
2022-08-01T01:45:09.466Z,21.16
2022-08-01T01:46:09.449Z,21.16
2022-08-01T01:47:09.452Z,21.13
2022-08-01T01:48:09.453Z,21.13
2022-08-01T01:49:09.517Z,21.13
2022-08-01T01:50:09.409Z,21.12
2022-08-01T01:51:09.414Z,21.13
2022-08-01T01:52:09.530Z,21.16
2022-08-01T01:53:15.131Z,21.13
2022-08-01T01:54:10.373Z,21.15
2022-08-01T01:55:09.331Z,21.15
2022-08-01T01:56:09.320Z,21.13
2022-08-01T01:57:09.323Z,21.12
2022-08-01T01:58:09.299Z,21.11
2022-08-01T01:59:09.336Z,21.09
2022-08-01T02:00:09.300Z,21.09
2022-08-01T02:01:14.303Z,21.09
2022-08-01T02:02:10.956Z,21.11
2022-08-01T02:03:09.274Z,21.11
2022-08-01T02:04:09.230Z,21.12
2022-08-01T02:05:09.222Z,21.11
2022-08-01T02:06:09.188Z,21.11
2022-08-01T02:07:09.191Z,21.11
2022-08-01T02:08:09.172Z,21.12
2022-08-01T02:09:09.202Z,21.11
2022-08-01T02:10:09.137Z,21.09
2022-08-01T02:11:09.142Z,21.11
2022-08-01T02:12:09.240Z,21.12
2022-08-01T02:13:09.102Z,21.13
2022-08-01T02:14:09.091Z,21.13
2022-08-01T02:15:09.093Z,21.13
2022-08-01T02:16:09.060Z,21.12
2022-08-01T02:17:09.055Z,21.12
2022-08-01T02:18:09.031Z,21.15
2022-08-01T02:19:09.039Z,21.15
2022-08-01T02:20:09.008Z,21.15
2022-08-01T02:21:09.024Z,21.18
2022-08-01T02:22:09.014Z,21.18
2022-08-01T02:23:08.986Z,21.21
2022-08-01T02:24:08.969Z,21.19
2022-08-01T02:25:08.960Z,21.16
2022-08-01T02:26:11.377Z,21.16
2022-08-01T02:27:08.947Z,21.19
2022-08-01T02:28:08.912Z,21.19
2022-08-01T02:29:08.912Z,21.21
2022-08-01T02:30:08.892Z,21.21
2022-08-01T02:31:08.867Z,21.21
2022-08-01T02:32:08.939Z,21.19
2022-08-01T02:33:10.144Z,21.21
2022-08-01T02:34:09.857Z,21.18
2022-08-01T02:35:08.873Z,21.19
2022-08-01T02:36:31.475Z,21.19
2022-08-01T02:37:09.789Z,21.16
2022-08-01T02:38:08.781Z,21.16
2022-08-01T02:39:08.801Z,21.16
2022-08-01T02:40:08.766Z,21.18
2022-08-01T02:41:08.730Z,21.18
2022-08-01T02:42:08.997Z,21.15
2022-08-01T02:43:08.717Z,21.16
2022-08-01T02:44:08.759Z,21.16
2022-08-01T02:45:08.702Z,21.13
2022-08-01T02:46:08.669Z,21.08
2022-08-01T02:47:08.684Z,21.09
2022-08-01T02:48:08.661Z,21.11
2022-08-01T02:49:08.707Z,21.13
2022-08-01T02:50:08.633Z,21.13
2022-08-01T02:51:08.617Z,21.15
2022-08-01T02:52:09.111Z,21.13
2022-08-01T02:53:08.604Z,21.12
2022-08-01T02:54:08.567Z,21.09
2022-08-01T02:55:08.590Z,21.08
2022-08-01T02:56:08.560Z,21.05
2022-08-01T02:57:08.536Z,21.03
2022-08-01T02:58:08.542Z,21.06
2022-08-01T02:59:08.542Z,21.08
2022-08-01T03:00:08.506Z,21.03
2022-08-01T03:01:08.594Z,21.03
2022-08-01T03:02:09.006Z,21.05
2022-08-01T03:03:08.461Z,21.03
2022-08-01T03:04:08.472Z,21.01
2022-08-01T03:05:08.427Z,21.00
2022-08-01T03:06:08.430Z,20.97
2022-08-01T03:07:08.420Z,20.96
2022-08-01T03:08:14.613Z,20.94
2022-08-01T03:09:09.406Z,20.97
2022-08-01T03:10:08.372Z,20.98
2022-08-01T03:11:08.349Z,20.96
2022-08-01T03:12:08.721Z,20.96
2022-08-01T03:13:08.325Z,20.96
2022-08-01T03:14:08.321Z,20.97
2022-08-01T03:15:08.310Z,20.97
2022-08-01T03:16:08.287Z,20.97
2022-08-01T03:17:08.289Z,20.98
2022-08-01T03:18:08.258Z,20.98
2022-08-01T03:19:08.239Z,20.97
2022-08-01T03:20:08.249Z,20.98
2022-08-01T03:21:08.220Z,20.98
2022-08-01T03:22:08.551Z,21.00
2022-08-01T03:23:08.209Z,21.00
2022-08-01T03:24:08.191Z,21.00
2022-08-01T03:25:08.179Z,20.97
2022-08-01T03:26:08.170Z,20.97
2022-08-01T03:27:08.159Z,20.97
2022-08-01T03:28:08.129Z,20.93
2022-08-01T03:29:08.108Z,20.93
2022-08-01T03:30:08.106Z,20.94
2022-08-01T03:31:08.101Z,20.96
2022-08-01T03:32:08.484Z,20.97
2022-08-01T03:33:08.056Z,20.97
2022-08-01T03:34:08.051Z,20.97
2022-08-01T03:35:08.059Z,20.97
2022-08-01T03:36:08.044Z,20.98
2022-08-01T03:37:08.027Z,21.01
2022-08-01T03:38:16.468Z,21.03
2022-08-01T03:39:08.979Z,21.01
2022-08-01T03:40:07.987Z,21.00
2022-08-01T03:41:07.981Z,20.98
2022-08-01T03:42:08.217Z,20.97
2022-08-01T03:43:07.926Z,20.96
2022-08-01T03:44:07.931Z,20.96
2022-08-01T03:45:07.927Z,20.97
2022-08-01T03:46:08.901Z,21.00
2022-08-01T03:47:07.878Z,21.03
2022-08-01T03:48:07.862Z,21.03
2022-08-01T03:49:07.957Z,21.05
2022-08-01T03:50:12.242Z,21.03
2022-08-01T03:51:07.842Z,21.03
2022-08-01T03:52:08.220Z,21.00
2022-08-01T03:53:07.810Z,20.98
2022-08-01T03:54:07.776Z,20.96
2022-08-01T03:55:07.802Z,20.96
2022-08-01T03:56:07.771Z,20.97
2022-08-01T03:57:07.746Z,20.96
2022-08-01T03:58:09.868Z,20.97
2022-08-01T03:59:07.731Z,20.97
2022-08-01T04:00:07.723Z,20.98
2022-08-01T04:01:07.743Z,21.00
2022-08-01T04:02:08.836Z,21.00
2022-08-01T04:03:07.694Z,20.98
2022-08-01T04:04:07.661Z,20.98
2022-08-01T04:05:07.682Z,21.00
2022-08-01T04:06:07.649Z,21.00
2022-08-01T04:07:07.630Z,21.00
2022-08-01T04:08:07.627Z,20.98
2022-08-01T04:09:12.816Z,21.00
2022-08-01T04:10:08.611Z,20.98
2022-08-01T04:11:07.581Z,20.98
2022-08-01T04:12:12.125Z,20.98
2022-08-01T04:13:08.537Z,20.96
2022-08-01T04:14:08.636Z,20.98
2022-08-01T04:15:07.528Z,20.98
2022-08-01T04:16:07.506Z,20.98
2022-08-01T04:17:07.492Z,20.97
2022-08-01T04:18:07.483Z,21.00
2022-08-01T04:19:07.456Z,21.00
2022-08-01T04:20:07.470Z,21.00
2022-08-01T04:21:07.450Z,21.01
2022-08-01T04:22:07.735Z,21.01
2022-08-01T04:23:07.407Z,21.01
2022-08-01T04:24:07.398Z,21.05
2022-08-01T04:25:07.430Z,21.03
2022-08-01T04:26:07.392Z,21.03
2022-08-01T04:27:07.369Z,21.03
2022-08-01T04:28:07.362Z,21.06
2022-08-01T04:29:07.348Z,21.08
2022-08-01T04:30:07.329Z,21.05
2022-08-01T04:31:07.325Z,21.03
2022-08-01T04:32:07.712Z,21.05
2022-08-01T04:33:07.276Z,21.05
2022-08-01T04:34:07.289Z,21.01
2022-08-01T04:35:22.486Z,21.00
2022-08-01T04:36:08.265Z,20.98
2022-08-01T04:37:07.224Z,20.98
2022-08-01T04:38:07.248Z,20.97
2022-08-01T04:39:07.195Z,20.98
2022-08-01T04:40:07.200Z,20.98
2022-08-01T04:41:09.118Z,21.00
2022-08-01T04:42:07.570Z,21.01
2022-08-01T04:43:07.172Z,21.05
2022-08-01T04:44:07.196Z,21.06
2022-08-01T04:45:07.124Z,21.06
2022-08-01T04:46:07.156Z,21.03
2022-08-01T04:47:07.086Z,21.03
2022-08-01T04:48:07.098Z,21.01
2022-08-01T04:49:07.142Z,20.98
2022-08-01T04:50:07.071Z,20.98
2022-08-01T04:51:07.068Z,20.97
2022-08-01T04:52:07.333Z,20.98
2022-08-01T04:53:07.027Z,20.98
2022-08-01T04:54:07.018Z,20.98
2022-08-01T04:55:07.006Z,21.00
2022-08-01T04:56:07.013Z,21.03
2022-08-01T04:57:06.976Z,21.03
2022-08-01T04:58:06.965Z,21.06
2022-08-01T04:59:06.953Z,21.09
2022-08-01T05:00:06.949Z,21.09
2022-08-01T05:01:06.992Z,21.12
2022-08-01T05:02:07.353Z,21.13
2022-08-01T05:03:06.906Z,21.09
2022-08-01T05:04:06.885Z,21.11
2022-08-01T05:05:06.864Z,21.11
2022-08-01T05:06:06.876Z,21.08
2022-08-01T05:07:06.833Z,21.05
2022-08-01T05:08:06.824Z,21.03
2022-08-01T05:09:06.816Z,21.05
2022-08-01T05:10:06.878Z,21.05
2022-08-01T05:11:06.818Z,21.01
2022-08-01T05:12:07.165Z,20.98
2022-08-01T05:13:06.778Z,20.97
2022-08-01T05:14:06.757Z,20.94
2022-08-01T05:15:09.516Z,20.91
2022-08-01T05:16:07.762Z,20.90
2022-08-01T05:17:06.713Z,20.90
2022-08-01T05:18:07.742Z,20.93
2022-08-01T05:19:06.699Z,20.94
2022-08-01T05:20:06.676Z,20.96
2022-08-01T05:21:06.680Z,20.97
2022-08-01T05:22:07.042Z,20.97
2022-08-01T05:23:06.644Z,20.96
2022-08-01T05:24:06.636Z,20.98
2022-08-01T05:25:06.621Z,21.00
2022-08-01T05:26:06.614Z,21.03
2022-08-01T05:27:06.575Z,21.05
2022-08-01T05:28:06.591Z,21.03
2022-08-01T05:29:06.575Z,21.05
2022-08-01T05:30:06.560Z,21.05
2022-08-01T05:31:06.552Z,21.06
2022-08-01T05:32:06.975Z,21.08
2022-08-01T05:33:06.518Z,21.08
2022-08-01T05:34:06.491Z,21.06
2022-08-01T05:35:07.487Z,21.06
2022-08-01T05:36:06.494Z,21.05
2022-08-01T05:37:06.458Z,21.08
2022-08-01T05:38:06.457Z,21.09
2022-08-01T05:39:07.445Z,21.12
2022-08-01T05:40:06.413Z,21.13
2022-08-01T05:41:06.411Z,21.16
2022-08-01T05:42:06.777Z,21.16
2022-08-01T05:43:06.386Z,21.18
2022-08-01T05:44:06.377Z,21.18
2022-08-01T05:45:06.363Z,21.21
2022-08-01T05:46:06.367Z,21.22
2022-08-01T05:47:06.322Z,21.24
2022-08-01T05:48:06.318Z,21.21
2022-08-01T05:49:06.354Z,21.19
2022-08-01T05:50:06.305Z,21.16
2022-08-01T05:51:06.283Z,21.18
2022-08-01T05:52:06.528Z,21.16
2022-08-01T05:53:06.245Z,21.13
2022-08-01T05:54:06.222Z,21.15
2022-08-01T05:55:06.214Z,21.16
2022-08-01T05:56:06.267Z,21.18
2022-08-01T05:57:06.196Z,21.19
2022-08-01T05:58:06.195Z,21.19
2022-08-01T05:59:06.170Z,21.21
2022-08-01T06:00:06.144Z,21.24
2022-08-01T06:01:06.166Z,21.26
2022-08-01T06:02:06.494Z,21.28
2022-08-01T06:03:06.125Z,21.30
2022-08-01T06:04:06.103Z,21.34
2022-08-01T06:05:09.063Z,21.36
2022-08-01T06:06:07.090Z,21.40
2022-08-01T06:07:06.069Z,21.38
2022-08-01T06:08:06.065Z,21.38
2022-08-01T06:09:06.033Z,21.40
2022-08-01T06:10:06.025Z,21.37
2022-08-01T06:11:06.013Z,21.38
2022-08-01T06:12:06.339Z,21.40
2022-08-01T06:13:05.986Z,21.38
2022-08-01T06:14:06.005Z,21.37
2022-08-01T06:15:05.966Z,21.36
2022-08-01T06:16:05.975Z,21.37
2022-08-01T06:17:05.922Z,21.38
2022-08-01T06:18:05.914Z,21.37
2022-08-01T06:19:05.916Z,21.36
2022-08-01T06:20:05.889Z,21.38
2022-08-01T06:21:05.897Z,21.36
2022-08-01T06:22:06.164Z,21.33
2022-08-01T06:23:28.516Z,21.34
2022-08-01T06:24:06.838Z,21.36
2022-08-01T06:25:05.811Z,21.40
2022-08-01T06:26:05.844Z,21.40
2022-08-01T06:27:05.934Z,21.40
2022-08-01T06:28:06.795Z,21.37
2022-08-01T06:29:05.772Z,21.37
2022-08-01T06:30:05.774Z,21.34
2022-08-01T06:31:05.752Z,21.31
2022-08-01T06:32:05.991Z,21.31
2022-08-01T06:33:05.744Z,21.30
2022-08-01T06:34:05.725Z,21.28
2022-08-01T06:35:05.692Z,21.33
2022-08-01T06:36:05.734Z,21.37
2022-08-01T06:37:06.877Z,21.42
2022-08-01T06:38:05.707Z,21.46
2022-08-01T06:39:05.654Z,21.48
2022-08-01T06:40:05.648Z,21.46
2022-08-01T06:41:05.611Z,21.48
2022-08-01T06:42:05.799Z,21.52
2022-08-01T06:43:05.603Z,21.53
2022-08-01T06:44:05.596Z,21.55
2022-08-01T06:45:05.574Z,21.56
2022-08-01T06:46:05.564Z,21.59
2022-08-01T06:47:05.562Z,21.64
2022-08-01T06:48:05.544Z,21.67
2022-08-01T06:49:05.588Z,21.71
2022-08-01T06:50:05.491Z,21.74
2022-08-01T06:51:05.496Z,21.82
2022-08-01T06:52:05.850Z,21.85
2022-08-01T06:53:05.477Z,21.89
2022-08-01T06:54:05.461Z,21.94
2022-08-01T06:55:05.432Z,21.94
2022-08-01T06:56:05.449Z,21.91
2022-08-01T06:57:05.436Z,21.89
2022-08-01T06:58:05.404Z,21.83
2022-08-01T06:59:05.371Z,21.79
2022-08-01T07:00:05.389Z,21.74
2022-08-01T07:01:05.439Z,21.74
2022-08-01T07:02:05.698Z,21.74
2022-08-01T07:03:05.330Z,21.79
2022-08-01T07:04:05.337Z,21.77
2022-08-01T07:05:05.299Z,21.75
2022-08-01T07:06:05.312Z,21.77
2022-08-01T07:07:05.284Z,21.71
2022-08-01T07:08:05.260Z,21.68
2022-08-01T07:09:09.585Z,21.63
2022-08-01T07:10:06.232Z,21.63
2022-08-01T07:11:05.253Z,21.64
2022-08-01T07:12:05.451Z,21.64
2022-08-01T07:13:05.201Z,21.70
2022-08-01T07:14:05.181Z,21.70
2022-08-01T07:15:05.252Z,21.73
2022-08-01T07:16:05.170Z,21.74
2022-08-01T07:17:05.159Z,21.77
2022-08-01T07:18:05.174Z,21.82
2022-08-01T07:19:05.133Z,21.86
2022-08-01T07:20:05.107Z,21.93
2022-08-01T07:21:05.119Z,21.98
2022-08-01T07:22:05.484Z,22.04
2022-08-01T07:23:05.059Z,22.06
2022-08-01T07:24:13.425Z,22.14
2022-08-01T07:25:06.050Z,22.23
2022-08-01T07:26:05.043Z,22.26
2022-08-01T07:27:23.899Z,22.27
2022-08-01T07:28:06.031Z,22.29
2022-08-01T07:29:05.002Z,22.29
2022-08-01T07:30:04.991Z,22.24
2022-08-01T07:31:04.959Z,22.20
2022-08-01T07:32:05.224Z,22.24
2022-08-01T07:33:04.946Z,22.35
2022-08-01T07:34:04.943Z,22.41
2022-08-01T07:35:04.916Z,22.42
2022-08-01T07:36:04.914Z,22.46
2022-08-01T07:37:04.888Z,22.57
2022-08-01T07:38:04.888Z,22.66
2022-08-01T07:39:04.851Z,22.69
2022-08-01T07:40:04.944Z,22.72
2022-08-01T07:41:04.842Z,22.69
2022-08-01T07:42:07.587Z,22.60
2022-08-01T07:43:04.811Z,22.49
2022-08-01T07:44:04.988Z,22.39
2022-08-01T07:45:04.769Z,22.30
2022-08-01T07:46:04.790Z,22.24
2022-08-01T07:47:04.771Z,22.23
2022-08-01T07:48:04.759Z,22.15
2022-08-01T07:49:04.776Z,22.14
2022-08-01T07:50:04.737Z,22.17
2022-08-01T07:51:04.707Z,22.15
2022-08-01T07:52:04.710Z,22.15
2022-08-01T07:53:04.694Z,22.20
2022-08-01T07:54:04.659Z,22.21
2022-08-01T07:55:04.650Z,22.23
2022-08-01T07:56:04.636Z,22.24
2022-08-01T07:57:04.650Z,22.29
2022-08-01T07:58:04.619Z,22.31
2022-08-01T07:59:04.600Z,22.36
2022-08-01T08:00:04.623Z,22.45
2022-08-01T08:01:04.599Z,22.56
2022-08-01T08:02:05.035Z,22.66
2022-08-01T08:03:04.581Z,22.79
2022-08-01T08:04:04.588Z,22.85
2022-08-01T08:05:04.529Z,22.96
2022-08-01T08:06:04.511Z,23.09
2022-08-01T08:07:04.876Z,23.18
2022-08-01T08:08:04.510Z,23.22
2022-08-01T08:09:04.486Z,23.25
2022-08-01T08:10:04.471Z,23.19
2022-08-01T08:11:04.450Z,23.15
2022-08-01T08:12:04.788Z,23.15
2022-08-01T08:13:04.433Z,23.16
2022-08-01T08:14:04.406Z,23.11
2022-08-01T08:15:04.410Z,23.07
2022-08-01T08:16:04.386Z,23.04
2022-08-01T08:17:04.358Z,22.99
2022-08-01T08:18:04.367Z,22.96
2022-08-01T08:19:04.362Z,22.96
2022-08-01T08:20:04.341Z,22.93
2022-08-01T08:21:06.825Z,22.96
2022-08-01T08:22:04.675Z,23.01
2022-08-01T08:23:04.330Z,23.07
2022-08-01T08:24:04.279Z,23.11
2022-08-01T08:25:04.279Z,23.16
2022-08-01T08:26:04.288Z,23.22
2022-08-01T08:27:04.261Z,23.26
2022-08-01T08:28:04.229Z,23.25
2022-08-01T08:29:04.211Z,23.25
2022-08-01T08:30:04.208Z,23.21
2022-08-01T08:31:04.177Z,23.14
2022-08-01T08:32:04.344Z,23.07
2022-08-01T08:33:04.171Z,23.04
2022-08-01T08:34:04.138Z,23.04
2022-08-01T08:35:04.125Z,23.14
2022-08-01T08:36:04.124Z,23.23
2022-08-01T08:37:04.097Z,23.37
2022-08-01T08:38:04.100Z,23.45
2022-08-01T08:39:04.101Z,23.47
2022-08-01T08:40:04.081Z,23.50
2022-08-01T08:41:04.048Z,23.44
2022-08-01T08:42:04.370Z,23.41
2022-08-01T08:43:04.037Z,23.37
2022-08-01T08:44:04.016Z,23.35
2022-08-01T08:45:04.010Z,23.29
2022-08-01T08:46:03.984Z,23.22
2022-08-01T08:47:03.981Z,23.15
2022-08-01T08:48:03.990Z,23.14
2022-08-01T08:49:03.984Z,23.15
2022-08-01T08:50:03.962Z,23.21
2022-08-01T08:51:03.957Z,23.26
2022-08-01T08:52:04.337Z,23.32
2022-08-01T08:53:06.548Z,23.35
2022-08-01T08:54:03.901Z,23.37
2022-08-01T08:55:03.880Z,23.41
2022-08-01T08:56:03.859Z,23.41
2022-08-01T08:57:03.848Z,23.42
2022-08-01T08:58:03.834Z,23.44
2022-08-01T08:59:03.850Z,23.49
2022-08-01T09:00:03.803Z,23.56
2022-08-01T09:01:03.797Z,23.60
2022-08-01T09:02:03.790Z,23.64
2022-08-01T09:03:03.849Z,23.67
2022-08-01T09:04:03.773Z,23.64
2022-08-01T09:05:03.768Z,23.56
2022-08-01T09:06:03.740Z,23.45
2022-08-01T09:07:03.719Z,23.41
2022-08-01T09:08:03.700Z,23.38
2022-08-01T09:09:03.720Z,23.38
2022-08-01T09:10:03.676Z,23.34
2022-08-01T09:11:03.680Z,23.32
2022-08-01T09:12:03.673Z,23.29
2022-08-01T09:13:03.657Z,23.29
2022-08-01T09:14:03.653Z,23.25
2022-08-01T09:15:03.645Z,23.22
2022-08-01T09:16:03.605Z,23.18
2022-08-01T09:17:03.601Z,23.15
2022-08-01T09:18:03.590Z,23.16
2022-08-01T09:19:03.585Z,23.16
2022-08-01T09:20:03.559Z,23.19
2022-08-01T09:21:03.581Z,23.18
2022-08-01T09:22:03.833Z,23.22
2022-08-01T09:23:03.525Z,23.32
2022-08-01T09:24:03.520Z,23.39
2022-08-01T09:25:03.542Z,23.50
2022-08-01T09:26:03.467Z,23.57
2022-08-01T09:27:03.599Z,23.59
2022-08-01T09:28:03.467Z,23.69
2022-08-01T09:29:03.470Z,23.78
2022-08-01T09:30:03.439Z,23.86
2022-08-01T09:31:03.417Z,23.96
2022-08-01T09:32:03.885Z,24.04
2022-08-01T09:33:11.426Z,24.05
2022-08-01T09:34:04.400Z,24.05
2022-08-01T09:35:03.390Z,24.09
2022-08-01T09:36:03.348Z,24.06
2022-08-01T09:37:03.360Z,24.12
2022-08-01T09:38:03.326Z,24.16
2022-08-01T09:39:03.341Z,24.23
2022-08-01T09:40:03.334Z,24.24
2022-08-01T09:41:03.295Z,24.26
2022-08-01T09:42:03.287Z,24.23
2022-08-01T09:43:03.283Z,24.11
2022-08-01T09:44:03.299Z,24.04
2022-08-01T09:45:03.235Z,24.00
2022-08-01T09:46:03.216Z,23.94
2022-08-01T09:47:07.564Z,23.90
2022-08-01T09:48:03.194Z,23.90
2022-08-01T09:49:03.240Z,23.87
2022-08-01T09:50:10.200Z,23.89
2022-08-01T09:51:09.842Z,23.81
2022-08-01T09:52:04.156Z,23.75
2022-08-01T09:53:03.147Z,23.72
2022-08-01T09:54:03.140Z,23.64
2022-08-01T09:55:03.116Z,23.60
2022-08-01T09:56:03.095Z,23.60
2022-08-01T09:57:03.413Z,23.63
2022-08-01T09:58:03.089Z,23.62
2022-08-01T09:59:03.085Z,23.64
2022-08-01T10:00:03.109Z,23.67
2022-08-01T10:01:03.045Z,23.68
2022-08-01T10:02:03.048Z,23.71
2022-08-01T10:03:10.472Z,23.72
2022-08-01T10:04:04.016Z,23.75
2022-08-01T10:05:07.586Z,23.81
2022-08-01T10:06:03.991Z,23.82
2022-08-01T10:07:03.067Z,23.87
2022-08-01T10:08:02.969Z,23.90
2022-08-01T10:09:04.739Z,23.94
2022-08-01T10:10:02.937Z,23.96
2022-08-01T10:11:02.920Z,23.99
2022-08-01T10:12:02.900Z,23.97
2022-08-01T10:13:03.380Z,23.97
2022-08-01T10:14:02.898Z,23.97
2022-08-01T10:15:02.872Z,23.97
2022-08-01T10:16:02.878Z,23.97
2022-08-01T10:17:05.204Z,24.02
2022-08-01T10:18:02.831Z,24.09
2022-08-01T10:19:02.829Z,24.11
2022-08-01T10:20:02.805Z,24.18
2022-08-01T10:21:02.798Z,24.21
2022-08-01T10:22:03.773Z,24.18
2022-08-01T10:23:05.625Z,24.15
2022-08-01T10:24:03.384Z,24.15
2022-08-01T10:25:02.771Z,24.15
2022-08-01T10:26:02.723Z,24.19
2022-08-01T10:27:05.956Z,24.26
2022-08-01T10:28:03.698Z,24.30
2022-08-01T10:29:02.700Z,24.29
2022-08-01T10:30:07.445Z,24.27
2022-08-01T10:31:03.678Z,24.30
2022-08-01T10:32:05.569Z,24.36
2022-08-01T10:33:02.638Z,24.44
2022-08-01T10:34:02.626Z,24.42
2022-08-01T10:35:06.816Z,24.39
2022-08-01T10:36:02.593Z,24.33
2022-08-01T10:37:02.661Z,24.34
2022-08-01T10:38:02.564Z,24.39
2022-08-01T10:39:02.555Z,24.42
2022-08-01T10:40:28.941Z,24.41
2022-08-01T10:41:06.527Z,24.42
2022-08-01T10:42:05.855Z,24.44
2022-08-01T10:44:11.937Z,24.49
2022-08-01T10:45:11.948Z,24.55
2022-08-01T10:46:12.664Z,24.59
2022-08-01T10:47:11.892Z,24.61
2022-08-01T10:48:11.900Z,24.63
2022-08-01T10:49:11.940Z,24.60
2022-08-01T10:50:11.898Z,24.64
2022-08-01T10:51:17.552Z,24.70
2022-08-01T10:52:12.845Z,24.77
2022-08-01T10:53:16.144Z,24.80
2022-08-01T10:54:12.818Z,24.89
2022-08-01T10:55:11.824Z,24.83
2022-08-01T10:56:15.060Z,24.84
2022-08-01T10:57:12.777Z,24.90
2022-08-01T10:58:15.733Z,24.90
2022-08-01T10:59:12.089Z,24.94
2022-08-01T11:00:11.742Z,24.97
2022-08-01T11:01:11.788Z,24.99
2022-08-01T11:02:11.705Z,25.01
2022-08-01T11:03:11.704Z,24.99
2022-08-01T11:04:16.572Z,24.99
2022-08-01T11:05:14.381Z,24.89
2022-08-01T11:06:11.679Z,24.80
2022-08-01T11:07:11.639Z,24.67
2022-08-01T11:08:11.636Z,24.61
2022-08-01T11:09:11.627Z,24.55
2022-08-01T11:10:14.745Z,24.53
2022-08-01T11:11:11.593Z,24.52
2022-08-01T11:12:13.232Z,24.49
2022-08-01T11:13:11.586Z,24.52
2022-08-01T11:14:11.542Z,24.53
2022-08-01T11:15:11.524Z,24.56
2022-08-01T11:16:16.221Z,24.55
2022-08-01T11:17:12.517Z,24.56
2022-08-01T11:18:11.519Z,24.56
2022-08-01T11:19:11.481Z,24.52
2022-08-01T11:20:11.470Z,24.52
2022-08-01T11:21:57.130Z,24.60
2022-08-01T11:22:12.458Z,24.63
2022-08-01T11:23:11.423Z,24.67
2022-08-01T11:24:11.439Z,24.77
2022-08-01T11:25:11.404Z,24.86
2022-08-01T11:26:11.429Z,24.97
2022-08-01T11:27:11.407Z,25.09
2022-08-01T11:28:15.089Z,25.22
2022-08-01T11:29:20.397Z,25.34
2022-08-01T11:30:13.072Z,25.45
2022-08-01T11:31:13.873Z,25.57
2022-08-01T11:32:11.315Z,25.66
2022-08-01T11:33:12.137Z,25.75
2022-08-01T11:34:11.284Z,25.83
2022-08-01T11:35:11.295Z,25.89
2022-08-01T11:36:11.274Z,25.97
2022-08-01T11:37:11.514Z,26.01
2022-08-01T11:38:11.247Z,25.98
2022-08-01T11:39:13.622Z,25.98
2022-08-01T11:40:11.261Z,26.03
2022-08-01T11:41:11.232Z,25.96
2022-08-01T11:42:11.203Z,25.94
2022-08-01T11:43:11.166Z,25.97
2022-08-01T11:44:11.676Z,25.97
2022-08-01T11:45:15.440Z,26.03
2022-08-01T11:46:12.166Z,26.01
2022-08-01T11:47:13.276Z,25.96
2022-08-01T11:48:11.100Z,25.90
2022-08-01T11:49:11.147Z,25.74
2022-08-01T11:50:11.175Z,25.61
2022-08-01T11:51:15.856Z,25.49
2022-08-01T11:52:12.060Z,25.35
2022-08-01T11:53:11.267Z,25.19
2022-08-01T11:54:11.049Z,25.16
2022-08-01T11:55:11.510Z,25.11
2022-08-01T11:56:11.035Z,25.07
2022-08-01T11:57:11.084Z,25.07
2022-08-01T11:58:22.289Z,25.02
2022-08-01T11:59:15.156Z,24.98
2022-08-01T12:00:11.018Z,24.99
2022-08-01T12:01:10.951Z,25.01
2022-08-01T12:02:11.022Z,25.09
2022-08-01T12:03:13.143Z,25.16
2022-08-01T12:04:11.916Z,25.12
2022-08-01T12:05:12.368Z,25.19
2022-08-01T12:06:10.899Z,25.27
2022-08-01T12:07:10.867Z,25.34
2022-08-01T12:08:10.868Z,25.39
2022-08-01T12:09:12.165Z,25.42
2022-08-01T12:10:10.934Z,25.42
2022-08-01T12:11:10.825Z,25.42
2022-08-01T12:12:10.805Z,25.45
2022-08-01T12:13:10.789Z,25.44
2022-08-01T12:14:10.763Z,25.49
2022-08-01T12:15:10.773Z,25.54
2022-08-01T12:16:10.776Z,25.56
2022-08-01T12:17:10.722Z,25.54
2022-08-01T12:18:10.722Z,25.56
2022-08-01T12:19:11.787Z,25.53
2022-08-01T12:20:10.706Z,25.51
2022-08-01T12:21:10.693Z,25.54
2022-08-01T12:22:10.667Z,25.59
2022-08-01T12:23:10.652Z,25.59
2022-08-01T12:24:10.677Z,25.54
2022-08-01T12:25:10.637Z,25.54
2022-08-01T12:26:28.575Z,25.54
2022-08-01T12:27:11.604Z,25.57
2022-08-01T12:28:10.599Z,25.57
2022-08-01T12:29:10.584Z,25.59
2022-08-01T12:30:10.578Z,25.57
2022-08-01T12:31:10.553Z,25.61
2022-08-01T12:32:10.579Z,25.66
2022-08-01T12:33:11.483Z,25.69
2022-08-01T12:34:10.519Z,25.71
2022-08-01T12:35:11.635Z,25.76
2022-08-01T12:36:14.655Z,25.85
2022-08-01T12:37:10.907Z,25.94
2022-08-01T12:38:10.455Z,25.89
2022-08-01T12:39:10.446Z,25.85
2022-08-01T12:40:10.468Z,25.82
2022-08-01T12:41:10.503Z,25.78
2022-08-01T12:42:10.406Z,25.76
2022-08-01T12:43:15.773Z,25.74
2022-08-01T12:44:11.372Z,25.71
2022-08-01T12:45:10.370Z,25.67
2022-08-01T12:46:10.375Z,25.61
2022-08-01T12:47:10.341Z,25.60
2022-08-01T12:48:10.347Z,25.61
2022-08-01T12:49:10.370Z,25.63
2022-08-01T12:50:10.294Z,25.64
2022-08-01T12:51:10.291Z,25.64
2022-08-01T12:52:13.212Z,25.57
2022-08-01T12:53:10.262Z,25.51